createdAt,value
2022-12-05T00:01:30.242Z,10.98
2022-12-05T00:03:59.309Z,12.43
2022-12-05T00:06:27.504Z,11.88
2022-12-05T00:08:54.864Z,12.38
2022-12-05T00:11:23.899Z,11.88
2022-12-05T00:13:52.495Z,12.18
2022-12-05T00:16:21.888Z,12.02
2022-12-05T00:18:49.225Z,11.50
2022-12-05T00:21:18.216Z,12.32
2022-12-05T00:23:45.760Z,11.90
2022-12-05T00:26:13.787Z,11.70
2022-12-05T00:28:41.275Z,12.40
2022-12-05T00:31:10.483Z,11.70
2022-12-05T00:33:38.118Z,12.43
2022-12-05T00:36:06.540Z,12.90
2022-12-05T00:38:33.780Z,12.55
2022-12-05T00:41:08.098Z,13.18
2022-12-05T00:43:35.283Z,12.80
2022-12-05T00:46:03.464Z,12.05
2022-12-05T00:48:30.968Z,12.48
2022-12-05T00:51:04.890Z,13.60
2022-12-05T00:53:32.166Z,12.13
2022-12-05T00:56:06.575Z,12.48
2022-12-05T00:58:34.171Z,13.23
2022-12-05T01:01:12.352Z,13.35
2022-12-05T01:03:39.700Z,12.57
2022-12-05T01:06:07.470Z,13.57
2022-12-05T01:08:35.525Z,12.63
2022-12-05T01:11:03.246Z,11.75
2022-12-05T01:13:30.574Z,13.05
2022-12-05T01:15:58.262Z,12.25
2022-12-05T01:18:26.296Z,13.02
2022-12-05T01:20:53.883Z,12.23
2022-12-05T01:23:21.325Z,12.32
2022-12-05T01:25:49.539Z,12.63
2022-12-05T01:28:17.139Z,13.68
2022-12-05T01:30:45.756Z,13.30
2022-12-05T01:33:13.336Z,13.48
2022-12-05T01:35:42.019Z,13.70
2022-12-05T01:38:09.326Z,14.15
2022-12-05T01:40:36.755Z,13.90
2022-12-05T01:43:04.275Z,12.90
2022-12-05T01:45:37.532Z,13.05
2022-12-05T01:48:07.044Z,13.55
2022-12-05T01:50:35.118Z,13.40
2022-12-05T01:53:02.672Z,13.30
2022-12-05T01:55:29.880Z,13.25
2022-12-05T01:57:57.697Z,13.75
2022-12-05T02:00:24.910Z,13.43
2022-12-05T02:02:57.392Z,13.82
2022-12-05T02:05:34.948Z,12.85
2022-12-05T02:08:05.559Z,12.82
2022-12-05T02:10:36.768Z,14.65
2022-12-05T02:13:09.484Z,13.30
2022-12-05T02:15:44.462Z,12.95
2022-12-05T02:18:21.831Z,13.02
2022-12-05T02:20:53.453Z,13.65
2022-12-05T02:23:39.349Z,14.52
2022-12-05T02:26:25.187Z,14.18
2022-12-05T02:28:52.408Z,13.18
2022-12-05T02:31:26.785Z,13.23
2022-12-05T02:34:23.220Z,14.45
2022-12-05T02:37:09.379Z,13.20
2022-12-05T02:39:41.534Z,13.85
2022-12-05T02:42:16.597Z,13.30
2022-12-05T02:44:49.649Z,13.23
2022-12-05T02:47:18.633Z,12.82
2022-12-05T02:49:45.927Z,13.57
2022-12-05T02:52:13.902Z,13.25
2022-12-05T02:54:43.623Z,14.23
2022-12-05T02:57:12.376Z,13.32
2022-12-05T02:59:39.710Z,14.45
2022-12-05T03:02:08.806Z,14.57
2022-12-05T03:04:36.165Z,14.35
2022-12-05T03:07:11.707Z,14.68
2022-12-05T03:09:42.686Z,14.15
2022-12-05T03:12:12.872Z,14.23
2022-12-05T03:14:44.592Z,13.80
2022-12-05T03:17:14.778Z,15.30
2022-12-05T03:19:47.698Z,16.52
2022-12-05T03:22:19.174Z,15.60
2022-12-05T03:24:46.521Z,14.77
2022-12-05T03:27:23.127Z,15.45
2022-12-05T03:30:03.414Z,15.30
2022-12-05T03:32:36.536Z,14.45
2022-12-05T03:35:16.918Z,14.25
2022-12-05T03:37:46.852Z,15.18
2022-12-05T03:40:29.303Z,14.15
2022-12-05T03:42:59.912Z,15.32
2022-12-05T03:45:30.533Z,15.18
2022-12-05T03:48:21.586Z,15.23
2022-12-05T03:50:49.701Z,14.23
2022-12-05T03:53:20.842Z,15.30
2022-12-05T03:55:51.906Z,14.38
2022-12-05T03:58:23.401Z,15.10
2022-12-05T04:00:53.240Z,15.05
2022-12-05T04:03:39.505Z,14.43
2022-12-05T04:06:11.471Z,14.50
2022-12-05T04:08:41.984Z,14.65
2022-12-05T04:11:14.995Z,15.85
2022-12-05T04:13:45.473Z,14.80
2022-12-05T04:16:33.109Z,15.57
2022-12-05T04:19:09.991Z,16.27
2022-12-05T04:21:40.116Z,15.40
2022-12-05T04:24:31.464Z,15.15
2022-12-05T04:27:18.311Z,15.38
2022-12-05T04:29:49.746Z,15.57
2022-12-05T04:32:17.510Z,16.02
2022-12-05T04:34:48.638Z,15.00
2022-12-05T04:37:17.494Z,15.63
2022-12-05T04:39:57.552Z,15.75
2022-12-05T04:42:27.087Z,15.45
2022-12-05T04:44:55.697Z,16.38
2022-12-05T04:47:25.758Z,16.63
2022-12-05T04:49:54.094Z,16.35
2022-12-05T04:52:22.071Z,17.38
2022-12-05T04:54:51.924Z,16.90
2022-12-05T04:57:19.086Z,16.75
2022-12-05T04:59:46.756Z,16.75
2022-12-05T05:02:15.659Z,16.98
2022-12-05T05:04:47.682Z,17.15
2022-12-05T05:07:15.284Z,16.95
2022-12-05T05:09:42.810Z,17.02
2022-12-05T05:12:12.170Z,17.80
2022-12-05T05:14:43.071Z,18.35
2022-12-05T05:17:10.333Z,17.38
2022-12-05T05:19:37.496Z,18.05
2022-12-05T05:22:04.735Z,19.58
2022-12-05T05:24:31.962Z,18.40
2022-12-05T05:26:59.157Z,18.23
2022-12-05T05:29:26.574Z,19.23
2022-12-05T05:31:53.851Z,17.98
2022-12-05T05:34:21.199Z,19.45
2022-12-05T05:36:51.896Z,19.80
2022-12-05T05:39:19.103Z,18.20
2022-12-05T05:41:46.299Z,18.27
2022-12-05T05:44:13.516Z,19.15
2022-12-05T05:46:40.791Z,19.23
2022-12-05T05:49:08.137Z,17.95
2022-12-05T05:51:35.389Z,19.50
2022-12-05T05:54:02.780Z,18.63
2022-12-05T05:56:30.457Z,17.85
2022-12-05T05:58:59.605Z,18.58
2022-12-05T06:01:26.970Z,19.80
2022-12-05T06:03:54.404Z,17.85
2022-12-05T06:06:22.507Z,18.45
2022-12-05T06:08:49.738Z,19.60
2022-12-05T06:11:24.910Z,19.20
2022-12-05T06:13:54.086Z,18.45
2022-12-05T06:16:21.581Z,18.63
2022-12-05T06:18:49.972Z,18.55
2022-12-05T06:21:17.740Z,19.65
2022-12-05T06:23:45.204Z,19.98
2022-12-05T06:26:13.728Z,17.35
2022-12-05T06:28:41.189Z,19.70
2022-12-05T06:31:12.185Z,18.85
2022-12-05T06:33:39.832Z,17.77
2022-12-05T06:36:09.160Z,18.13
2022-12-05T06:38:41.603Z,18.02
2022-12-05T06:41:10.699Z,16.95
2022-12-05T06:43:37.947Z,19.98
2022-12-05T06:46:06.160Z,18.08
2022-12-05T06:48:33.662Z,17.88
2022-12-05T06:51:00.922Z,18.38
2022-12-05T06:53:28.165Z,17.40
2022-12-05T06:55:59.533Z,17.63
2022-12-05T06:58:26.776Z,17.27
2022-12-05T07:01:12.685Z,18.38
2022-12-05T07:03:40.497Z,16.92
2022-12-05T07:06:08.341Z,17.55
2022-12-05T07:08:35.948Z,16.90
2022-12-05T07:11:03.841Z,18.67
2022-12-05T07:13:31.387Z,17.58
2022-12-05T07:15:59.227Z,16.55
2022-12-05T07:18:27.225Z,18.08
2022-12-05T07:21:17.069Z,16.45
2022-12-05T07:23:45.788Z,18.65
2022-12-05T07:26:14.920Z,15.70
2022-12-05T07:28:42.152Z,16.05
2022-12-05T07:31:10.719Z,16.88
2022-12-05T07:33:38.214Z,16.63
2022-12-05T07:36:10.797Z,17.92
2022-12-05T07:41:12.824Z,13.90
2022-12-05T07:43:40.855Z,15.50
2022-12-05T07:46:08.953Z,17.20
2022-12-05T07:48:36.209Z,15.88
2022-12-05T07:51:06.924Z,15.85
2022-12-05T07:53:35.756Z,15.73
2022-12-05T07:56:04.475Z,14.48
2022-12-05T07:58:32.939Z,16.85
2022-12-05T08:01:10.276Z,13.93
2022-12-05T08:03:37.554Z,13.35
2022-12-05T08:06:25.008Z,15.32
2022-12-05T08:08:52.712Z,13.93
2022-12-05T08:11:21.635Z,14.10
2022-12-05T08:13:48.923Z,14.55
2022-12-05T08:16:17.681Z,15.10
2022-12-05T08:18:45.221Z,15.65
2022-12-05T08:21:14.523Z,15.05
2022-12-05T08:23:41.952Z,13.45
2022-12-05T08:26:11.554Z,13.50
2022-12-05T08:28:38.799Z,13.40
2022-12-05T08:31:07.468Z,12.32
2022-12-05T08:33:34.783Z,14.68
2022-12-05T08:36:06.034Z,13.43
2022-12-05T08:38:33.320Z,12.35
2022-12-05T08:41:04.463Z,14.52
2022-12-05T08:43:31.755Z,13.90
2022-12-05T08:45:59.120Z,13.90
2022-12-05T08:48:29.406Z,12.18
2022-12-05T08:50:57.320Z,14.18
2022-12-05T08:53:24.605Z,13.48
2022-12-05T08:55:51.794Z,14.00
2022-12-05T08:58:18.998Z,14.45
2022-12-05T09:00:46.256Z,13.27
2022-12-05T09:03:13.432Z,14.43
2022-12-05T09:05:40.664Z,12.55
2022-12-05T09:08:07.977Z,13.07
2022-12-05T09:10:35.323Z,14.15
2022-12-05T09:13:02.523Z,14.73
2022-12-05T09:15:29.817Z,13.93
2022-12-05T09:17:57.130Z,14.40
2022-12-05T09:20:24.494Z,14.98
2022-12-05T09:22:53.072Z,14.70
2022-12-05T09:25:20.283Z,13.85
2022-12-05T09:27:47.711Z,13.77
2022-12-05T09:30:15.346Z,12.88
2022-12-05T09:32:42.579Z,14.02
2022-12-05T09:35:09.926Z,12.93
2022-12-05T09:37:39.829Z,12.73
2022-12-05T09:40:08.114Z,13.63
2022-12-05T09:42:38.398Z,13.65
2022-12-05T09:45:15.224Z,12.13
2022-12-05T09:48:02.362Z,13.93
2022-12-05T09:50:40.187Z,12.70
2022-12-05T09:53:10.201Z,12.32
2022-12-05T09:55:43.963Z,13.32
2022-12-05T09:58:17.761Z,11.98
2022-12-05T10:00:44.947Z,12.07
2022-12-05T10:03:27.359Z,11.38
2022-12-05T10:06:00.805Z,12.32
2022-12-05T10:08:38.882Z,11.63
2022-12-05T10:11:08.598Z,12.10
2022-12-05T10:13:38.859Z,13.25
2022-12-05T10:16:10.497Z,12.70
2022-12-05T10:18:43.792Z,13.13
2022-12-05T10:21:15.886Z,12.55
2022-12-05T10:24:01.279Z,14.70
2022-12-05T10:26:30.733Z,12.65
2022-12-05T10:29:04.139Z,12.63
2022-12-05T10:31:33.213Z,14.15
2022-12-05T10:34:05.566Z,12.68
2022-12-05T10:36:32.864Z,13.18
2022-12-05T10:39:00.212Z,12.68
2022-12-05T10:41:28.659Z,11.95
2022-12-05T10:43:57.591Z,12.85
2022-12-05T10:46:24.896Z,11.90
2022-12-05T10:48:53.332Z,13.25
2022-12-05T10:51:26.544Z,13.05
2022-12-05T10:53:54.328Z,12.52
2022-12-05T10:56:36.928Z,13.00
2022-12-05T10:59:04.594Z,12.82
2022-12-05T11:01:32.393Z,14.05
2022-12-05T11:04:01.827Z,13.20
2022-12-05T11:06:31.148Z,13.40
2022-12-05T11:09:05.633Z,12.88
2022-12-05T11:11:34.157Z,14.15
2022-12-05T11:14:02.866Z,13.75
2022-12-05T11:16:32.887Z,14.07
2022-12-05T11:19:39.446Z,15.18
2022-12-05T11:22:10.850Z,15.25
2022-12-05T11:24:39.208Z,15.38
2022-12-05T11:27:18.325Z,14.27
2022-12-05T11:29:53.803Z,14.32
2022-12-05T11:32:22.934Z,14.68
2022-12-05T11:34:53.412Z,13.95
2022-12-05T11:37:28.745Z,15.23
2022-12-05T11:39:57.231Z,13.40
2022-12-05T11:42:31.452Z,13.80
2022-12-05T11:45:07.851Z,13.82
2022-12-05T11:47:37.778Z,14.95
2022-12-05T11:50:28.949Z,15.82
2022-12-05T11:53:14.773Z,14.27
2022-12-05T11:55:44.586Z,14.57
2022-12-05T11:58:30.527Z,14.90
2022-12-05T12:01:03.549Z,13.93
2022-12-05T12:03:36.930Z,14.23
2022-12-05T12:06:07.319Z,12.57
2022-12-05T12:09:00.888Z,13.40
2022-12-05T12:11:28.447Z,14.68
2022-12-05T12:14:14.808Z,14.13
2022-12-05T12:16:58.894Z,14.95
2022-12-05T12:19:50.704Z,14.27
2022-12-05T12:22:23.776Z,13.48
2022-12-05T12:24:51.051Z,13.43
2022-12-05T12:27:36.876Z,11.45
2022-12-05T12:30:04.153Z,14.32
2022-12-05T12:32:34.110Z,12.88
2022-12-05T12:35:14.495Z,11.98
2022-12-05T12:37:48.668Z,12.23
2022-12-05T12:40:20.860Z,12.73
2022-12-05T12:43:07.196Z,12.80
2022-12-05T12:45:48.017Z,12.18
2022-12-05T12:48:26.373Z,12.35
2022-12-05T12:50:54.733Z,10.38
2022-12-05T12:53:24.923Z,11.88
2022-12-05T12:56:10.917Z,11.23
2022-12-05T12:58:56.824Z,12.35
2022-12-05T13:01:29.889Z,11.95
2022-12-05T13:04:02.607Z,11.05
2022-12-05T13:08:59.416Z,12.10
2022-12-05T13:11:29.681Z,12.38
2022-12-05T13:13:59.320Z,11.70
2022-12-05T13:16:29.127Z,12.38
2022-12-05T13:18:56.862Z,15.00
2022-12-05T13:21:24.353Z,13.02
2022-12-05T13:23:52.870Z,13.85
2022-12-05T13:26:20.220Z,13.80
2022-12-05T13:28:50.180Z,12.95
2022-12-05T13:31:19.438Z,13.32
2022-12-05T13:33:48.293Z,12.13
2022-12-05T13:36:39.100Z,63.05
2022-12-05T13:39:26.695Z,14.18
2022-12-05T13:42:15.138Z,12.95
2022-12-05T13:44:54.136Z,11.98
2022-12-05T13:47:33.708Z,12.68
2022-12-05T13:50:09.984Z,11.82
2022-12-05T13:52:52.057Z,11.65
2022-12-05T13:55:25.175Z,12.35
2022-12-05T13:57:53.750Z,10.95
2022-12-05T14:00:23.195Z,11.82
2022-12-05T14:02:52.226Z,11.07
2022-12-05T14:05:19.450Z,10.32
2022-12-05T14:07:50.672Z,10.88
2022-12-05T14:10:28.247Z,10.23
2022-12-05T14:12:55.489Z,10.93
2022-12-05T14:15:36.508Z,9.40
2022-12-05T14:18:11.553Z,8.90
2022-12-05T14:20:57.101Z,10.25
2022-12-05T14:23:36.351Z,10.18
2022-12-05T14:26:08.685Z,9.77
2022-12-05T14:28:59.240Z,8.75
2022-12-05T14:31:44.887Z,9.25
2022-12-05T14:34:15.111Z,9.55
2022-12-05T14:37:08.817Z,9.55
2022-12-05T14:39:35.977Z,9.65
2022-12-05T14:42:05.161Z,8.75
2022-12-05T14:44:33.320Z,8.93
2022-12-05T14:47:05.788Z,8.27
2022-12-05T14:49:52.538Z,8.70
2022-12-05T14:52:24.303Z,8.40
2022-12-05T14:54:53.162Z,8.60
2022-12-05T14:57:20.935Z,8.75
2022-12-05T15:00:09.497Z,7.65
2022-12-05T15:02:44.954Z,8.80
2022-12-05T15:05:16.271Z,8.25
2022-12-05T15:07:44.811Z,9.05
2022-12-05T15:10:12.084Z,8.55
2022-12-05T15:12:49.679Z,8.63
2022-12-05T15:15:25.289Z,7.82
2022-12-05T15:17:54.527Z,6.65
2022-12-05T15:20:25.669Z,6.43
2022-12-05T15:22:52.935Z,7.10
2022-12-05T15:25:33.315Z,6.70
2022-12-05T15:28:05.878Z,6.70
2022-12-05T15:30:34.800Z,5.95
2022-12-05T15:33:02.386Z,6.10
2022-12-05T15:35:32.687Z,6.50
2022-12-05T15:38:01.963Z,5.90
2022-12-05T15:40:37.416Z,7.07
2022-12-05T15:43:24.745Z,6.18
2022-12-05T15:45:52.765Z,5.50
2022-12-05T15:48:23.128Z,6.10
2022-12-05T15:50:51.787Z,5.75
2022-12-05T15:53:23.426Z,6.38
2022-12-05T15:56:02.311Z,6.85
2022-12-05T15:58:31.570Z,7.35
2022-12-05T16:01:07.889Z,7.32
2022-12-05T16:03:46.155Z,7.15
2022-12-05T16:06:51.888Z,7.72
2022-12-05T16:09:20.642Z,6.50
2022-12-05T16:11:56.495Z,7.10
2022-12-05T16:14:57.894Z,7.57
2022-12-05T16:17:15.741Z,6.93
2022-12-05T16:19:44.246Z,6.20
2022-12-05T16:22:16.938Z,6.93
2022-12-05T16:27:16.144Z,6.35
2022-12-05T16:29:43.755Z,6.35
2022-12-05T16:32:23.920Z,8.02
2022-12-05T16:34:51.420Z,7.05
2022-12-05T16:37:28.479Z,6.20
2022-12-05T16:39:56.200Z,6.25
2022-12-05T16:42:25.290Z,6.18
2022-12-05T16:44:59.683Z,7.05
2022-12-05T16:47:47.059Z,8.48
2022-12-05T16:50:34.950Z,11.20
2022-12-05T16:53:03.007Z,8.63
2022-12-05T16:55:37.300Z,7.38
2022-12-05T16:58:05.399Z,7.75
2022-12-05T17:00:33.216Z,6.82
2022-12-05T17:03:25.700Z,6.63
2022-12-05T17:05:47.684Z,7.20
2022-12-05T17:08:14.994Z,12.13
2022-12-05T17:10:42.954Z,10.38
2022-12-05T17:13:12.225Z,13.52
2022-12-05T17:15:39.466Z,9.63
2022-12-05T17:18:27.970Z,6.75
2022-12-05T17:20:59.890Z,5.88
2022-12-05T17:23:27.182Z,4.97
2022-12-05T17:25:55.366Z,7.03
2022-12-05T17:28:23.133Z,9.05
2022-12-05T17:30:50.601Z,7.95
2022-12-05T17:33:18.832Z,7.07
2022-12-05T17:35:46.126Z,7.10
2022-12-05T17:38:13.491Z,7.45
2022-12-05T17:40:41.114Z,7.00
2022-12-05T17:43:11.215Z,5.88
2022-12-05T17:45:38.452Z,6.50
2022-12-05T17:48:05.777Z,5.57
2022-12-05T17:50:33.072Z,6.22
2022-12-05T17:53:05.729Z,5.18
2022-12-05T17:55:34.367Z,6.60
2022-12-05T17:58:01.569Z,6.03
2022-12-05T18:00:28.899Z,6.18
2022-12-05T18:02:56.213Z,7.28
2022-12-05T18:05:23.898Z,6.13
2022-12-05T18:07:51.360Z,7.47
2022-12-05T18:10:21.232Z,8.48
2022-12-05T18:12:49.313Z,8.85
2022-12-05T18:15:18.396Z,9.60
2022-12-05T18:17:45.632Z,10.85
2022-12-05T18:20:14.247Z,11.20
2022-12-05T18:22:42.002Z,8.63
2022-12-05T18:25:09.982Z,8.70
2022-12-05T18:27:37.716Z,8.73
2022-12-05T18:30:05.614Z,7.30
2022-12-05T18:32:33.420Z,6.95
2022-12-05T18:35:02.130Z,7.07
2022-12-05T18:37:30.220Z,7.22
2022-12-05T18:39:57.469Z,6.00
2022-12-05T18:42:24.700Z,6.65
2022-12-05T18:44:52.747Z,5.20
2022-12-05T18:47:20.472Z,6.35
2022-12-05T18:49:47.930Z,6.50
2022-12-05T18:52:15.175Z,5.40
2022-12-05T18:54:42.465Z,5.18
2022-12-05T18:57:09.967Z,6.82
2022-12-05T18:59:37.225Z,5.18
2022-12-05T19:02:05.364Z,5.28
2022-12-05T19:04:32.763Z,4.78
2022-12-05T19:07:02.062Z,6.03
2022-12-05T19:09:32.419Z,5.20
2022-12-05T19:12:00.825Z,6.10
2022-12-05T19:14:30.560Z,4.72
2022-12-05T19:17:00.104Z,3.92
2022-12-05T19:19:28.032Z,4.15
2022-12-05T19:21:55.388Z,4.32
2022-12-05T19:24:22.651Z,4.40
2022-12-05T19:26:49.876Z,4.32
2022-12-05T19:29:17.440Z,13.38
2022-12-05T19:31:45.278Z,5.97
2022-12-05T19:34:12.766Z,4.07
2022-12-05T19:36:41.779Z,3.90
2022-12-05T19:39:11.921Z,3.70
2022-12-05T19:41:39.233Z,3.40
2022-12-05T19:44:06.486Z,3.47
2022-12-05T19:46:34.208Z,4.75
2022-12-05T19:49:03.154Z,3.70
2022-12-05T19:51:31.113Z,4.53
2022-12-05T19:54:00.067Z,3.60
2022-12-05T19:56:28.225Z,3.63
2022-12-05T19:58:56.613Z,3.88
2022-12-05T20:01:25.439Z,4.95
2022-12-05T20:04:02.913Z,3.75
2022-12-05T20:06:33.992Z,3.30
2022-12-05T20:09:01.528Z,3.40
2022-12-05T20:11:29.235Z,3.83
2022-12-05T20:13:57.172Z,3.92
2022-12-05T20:16:26.746Z,3.00
2022-12-05T20:18:55.371Z,2.95
2022-12-05T20:21:23.339Z,2.70
2022-12-05T20:23:51.729Z,3.20
2022-12-05T20:26:20.468Z,2.90
2022-12-05T20:28:47.737Z,2.92
2022-12-05T20:31:19.918Z,2.75
2022-12-05T20:33:47.472Z,2.72
2022-12-05T20:36:16.435Z,2.47
2022-12-05T20:38:43.971Z,3.20
2022-12-05T20:41:15.320Z,2.95
2022-12-05T20:43:43.202Z,2.60
2022-12-05T20:46:20.489Z,3.95
2022-12-05T20:48:48.066Z,6.63
2022-12-05T20:51:25.816Z,5.72
2022-12-05T20:53:53.397Z,5.18
2022-12-05T20:56:28.396Z,3.13
2022-12-05T20:58:57.689Z,3.88
2022-12-05T21:01:25.808Z,4.38
2022-12-05T21:03:53.349Z,3.28
2022-12-05T21:06:22.967Z,5.13
2022-12-05T21:08:51.039Z,4.38
2022-12-05T21:11:18.616Z,5.72
2022-12-05T21:13:46.146Z,3.90
2022-12-05T21:16:17.753Z,3.30
2022-12-05T21:18:45.135Z,3.00
2022-12-05T21:21:14.709Z,3.45
2022-12-05T21:23:42.864Z,3.35
2022-12-05T21:26:12.020Z,3.47
2022-12-05T21:28:39.587Z,4.57
2022-12-05T21:31:14.385Z,3.35
2022-12-05T21:33:42.723Z,3.42
2022-12-05T21:36:10.182Z,4.15
2022-12-05T21:38:37.374Z,4.15
2022-12-05T21:41:07.429Z,4.55
2022-12-05T21:43:35.259Z,5.40
2022-12-05T21:46:02.546Z,4.57
2022-12-05T21:48:29.816Z,5.00
2022-12-05T21:50:57.736Z,3.40
2022-12-05T21:53:25.011Z,3.95
2022-12-05T21:56:02.387Z,5.25
2022-12-05T21:58:29.702Z,4.72
2022-12-05T22:00:56.912Z,5.78
2022-12-05T22:03:24.218Z,5.82
2022-12-05T22:05:51.583Z,5.32
2022-12-05T22:08:18.912Z,4.97
2022-12-05T22:10:46.092Z,5.13
2022-12-05T22:13:13.321Z,4.88
2022-12-05T22:15:41.861Z,4.82
2022-12-05T22:18:11.032Z,4.38
2022-12-05T22:20:38.360Z,3.55
2022-12-05T22:23:05.631Z,4.18
2022-12-05T22:25:35.208Z,4.30
2022-12-05T22:28:02.455Z,4.20
2022-12-05T22:30:29.688Z,4.80
2022-12-05T22:32:59.262Z,4.65
2022-12-05T22:35:28.755Z,3.80
2022-12-05T22:37:55.951Z,4.10
2022-12-05T22:40:23.138Z,3.13
2022-12-05T22:42:50.338Z,3.05
2022-12-05T22:45:17.550Z,3.03
2022-12-05T22:47:44.748Z,3.53
2022-12-05T22:50:12.123Z,3.22
2022-12-05T22:52:43.933Z,3.22
2022-12-05T22:55:11.130Z,3.50
2022-12-05T22:57:38.368Z,3.47
2022-12-05T23:00:06.615Z,3.55
2022-12-05T23:02:33.866Z,3.28
2022-12-05T23:05:03.000Z,3.60
2022-12-05T23:07:32.624Z,3.67
2022-12-05T23:10:02.363Z,2.90
2022-12-05T23:12:29.712Z,3.33
2022-12-05T23:14:57.007Z,2.90
2022-12-05T23:17:26.269Z,3.67
2022-12-05T23:19:53.515Z,3.78
2022-12-05T23:22:20.728Z,2.90
2022-12-05T23:24:47.953Z,2.60
2022-12-05T23:27:18.737Z,3.08
2022-12-05T23:29:46.423Z,3.10
2022-12-05T23:32:13.734Z,2.83
2022-12-05T23:34:40.935Z,3.03
2022-12-05T23:37:08.229Z,3.33
2022-12-05T23:39:37.850Z,2.78
2022-12-05T23:42:05.065Z,2.92
2022-12-05T23:44:32.368Z,2.65
2022-12-05T23:46:59.682Z,2.80
2022-12-05T23:49:26.981Z,2.42
2022-12-05T23:51:54.189Z,3.72
2022-12-05T23:54:21.380Z,3.30
2022-12-05T23:56:48.688Z,2.97
2022-12-05T23:59:16.119Z,3.30
